sensor_id;sensor_type;location;lat;lon;timestamp;pressure;altitude;pressure_sealevel;temperature;humidity
55990;BME280;41875;55.806;38.082;2022-12-29T00:00:33;99061.69;;;2.81;61.21
55990;BME280;41875;55.806;38.082;2022-12-29T00:03:04;99059.66;;;2.73;61.25
55990;BME280;41875;55.806;38.082;2022-12-29T00:05:33;99038.16;;;2.24;62.23
55990;BME280;41875;55.806;38.082;2022-12-29T00:08:01;99052.47;;;3.10;60.40
55990;BME280;41875;55.806;38.082;2022-12-29T00:10:31;99060.34;;;3.42;59.86
55990;BME280;41875;55.806;38.082;2022-12-29T00:13:08;99057.78;;;3.31;59.26
55990;BME280;41875;55.806;38.082;2022-12-29T00:15:55;99066.31;;;2.43;61.80
55990;BME280;41875;55.806;38.082;2022-12-29T00:18:27;99064.22;;;2.02;63.32
55990;BME280;41875;55.806;38.082;2022-12-29T00:20:55;99069.03;;;2.31;62.73
55990;BME280;41875;55.806;38.082;2022-12-29T00:23:43;99065.69;;;1.70;64.53
55990;BME280;41875;55.806;38.082;2022-12-29T00:26:31;99050.31;;;1.54;64.88
55990;BME280;41875;55.806;38.082;2022-12-29T00:29:17;99060.66;;;2.03;63.76
55990;BME280;41875;55.806;38.082;2022-12-29T00:32:07;99060.59;;;2.16;63.46
55990;BME280;41875;55.806;38.082;2022-12-29T00:34:55;99063.81;;;2.31;62.68
55990;BME280;41875;55.806;38.082;2022-12-29T00:37:37;99066.31;;;2.55;61.70
55990;BME280;41875;55.806;38.082;2022-12-29T00:40:21;99068.78;;;2.22;62.34
55990;BME280;41875;55.806;38.082;2022-12-29T00:43:15;99071.88;;;1.69;64.22
55990;BME280;41875;55.806;38.082;2022-12-29T00:46:01;99075.06;;;1.73;64.94
55990;BME280;41875;55.806;38.082;2022-12-29T00:48:30;99064.78;;;1.47;66.04
55990;BME280;41875;55.806;38.082;2022-12-29T00:51:24;99079.84;;;1.79;64.86
55990;BME280;41875;55.806;38.082;2022-12-29T00:53:52;99076.00;;;1.72;64.95
55990;BME280;41875;55.806;38.082;2022-12-29T00:56:21;99039.06;;;2.12;62.94
55990;BME280;41875;55.806;38.082;2022-12-29T00:58:51;99072.59;;;2.29;62.99
55990;BME280;41875;55.806;38.082;2022-12-29T01:01:19;99075.56;;;1.78;64.29
55990;BME280;41875;55.806;38.082;2022-12-29T01:03:48;99075.06;;;1.73;65.31
55990;BME280;41875;55.806;38.082;2022-12-29T01:06:18;99080.19;;;2.21;63.87
55990;BME280;41875;55.806;38.082;2022-12-29T01:08:47;99075.84;;;1.97;64.26
55990;BME280;41875;55.806;38.082;2022-12-29T01:11:37;99069.00;;;1.96;63.83
55990;BME280;41875;55.806;38.082;2022-12-29T01:14:08;99071.78;;;2.29;62.52
55990;BME280;41875;55.806;38.082;2022-12-29T01:16:37;99071.91;;;2.62;61.51
55990;BME280;41875;55.806;38.082;2022-12-29T01:19:05;99058.22;;;1.65;63.52
55990;BME280;41875;55.806;38.082;2022-12-29T01:21:34;99084.88;;;1.93;63.17
55990;BME280;41875;55.806;38.082;2022-12-29T01:24:03;99075.25;;;1.94;63.17
55990;BME280;41875;55.806;38.082;2022-12-29T01:26:33;99081.94;;;1.38;64.27
55990;BME280;41875;55.806;38.082;2022-12-29T01:29:01;99086.84;;;1.78;62.98
55990;BME280;41875;55.806;38.082;2022-12-29T01:31:31;99082.03;;;1.61;63.03
55990;BME280;41875;55.806;38.082;2022-12-29T01:34:00;99086.25;;;1.50;63.25
55990;BME280;41875;55.806;38.082;2022-12-29T01:36:29;99083.25;;;2.15;61.23
55990;BME280;41875;55.806;38.082;2022-12-29T01:38:58;99089.94;;;1.83;61.48
55990;BME280;41875;55.806;38.082;2022-12-29T01:41:26;99084.81;;;1.82;61.66
55990;BME280;41875;55.806;38.082;2022-12-29T01:43:57;99099.00;;;2.61;59.56
55990;BME280;41875;55.806;38.082;2022-12-29T01:46:29;99096.25;;;2.28;59.97
55990;BME280;41875;55.806;38.082;2022-12-29T01:49:07;99088.53;;;1.91;61.04
55990;BME280;41875;55.806;38.082;2022-12-29T01:51:42;99094.13;;;1.13;63.11
55990;BME280;41875;55.806;38.082;2022-12-29T01:54:16;99093.53;;;1.34;62.79
55990;BME280;41875;55.806;38.082;2022-12-29T01:56:46;99089.53;;;2.01;60.50
55990;BME280;41875;55.806;38.082;2022-12-29T01:59:17;99093.91;;;1.41;61.42
55990;BME280;41875;55.806;38.082;2022-12-29T02:01:48;99095.63;;;0.91;63.63
55990;BME280;41875;55.806;38.082;2022-12-29T02:04:22;99093.69;;;1.19;62.45
55990;BME280;41875;55.806;38.082;2022-12-29T02:06:57;99099.34;;;1.86;60.96
55990;BME280;41875;55.806;38.082;2022-12-29T02:09:29;99104.88;;;1.09;62.57
55990;BME280;41875;55.806;38.082;2022-12-29T02:11:58;99100.00;;;1.04;62.36
55990;BME280;41875;55.806;38.082;2022-12-29T02:14:28;99091.25;;;1.29;61.87
55990;BME280;41875;55.806;38.082;2022-12-29T02:17:04;99112.22;;;1.03;61.98
55990;BME280;41875;55.806;38.082;2022-12-29T02:23:01;99095.31;;;0.96;62.58
55990;BME280;41875;55.806;38.082;2022-12-29T02:25:54;99103.16;;;1.93;59.40
55990;BME280;41875;55.806;38.082;2022-12-29T02:28:49;99103.94;;;1.47;60.67
55990;BME280;41875;55.806;38.082;2022-12-29T02:31:25;99104.38;;;1.03;61.27
55990;BME280;41875;55.806;38.082;2022-12-29T02:34:03;99100.94;;;2.00;59.40
55990;BME280;41875;55.806;38.082;2022-12-29T02:36:42;99115.03;;;2.67;57.67
55990;BME280;41875;55.806;38.082;2022-12-29T02:39:21;99099.72;;;2.74;57.15
55990;BME280;41875;55.806;38.082;2022-12-29T02:41:58;99110.47;;;2.24;58.24
55990;BME280;41875;55.806;38.082;2022-12-29T02:44:36;99112.44;;;2.56;57.07
55990;BME280;41875;55.806;38.082;2022-12-29T02:47:18;99122.19;;;2.65;56.47
55990;BME280;41875;55.806;38.082;2022-12-29T02:49:56;99118.59;;;2.32;57.18
55990;BME280;41875;55.806;38.082;2022-12-29T02:52:28;99117.75;;;2.32;57.16
55990;BME280;41875;55.806;38.082;2022-12-29T02:55:00;99118.50;;;1.98;57.95
55990;BME280;41875;55.806;38.082;2022-12-29T02:57:31;99119.69;;;2.05;57.52
55990;BME280;41875;55.806;38.082;2022-12-29T03:00:05;99122.53;;;2.49;56.19
55990;BME280;41875;55.806;38.082;2022-12-29T03:02:49;99112.69;;;2.06;57.51
55990;BME280;41875;55.806;38.082;2022-12-29T03:05:29;99127.06;;;2.00;57.20
55990;BME280;41875;55.806;38.082;2022-12-29T03:08:06;99128.56;;;2.27;56.70
55990;BME280;41875;55.806;38.082;2022-12-29T03:10:51;99135.91;;;2.22;56.64
55990;BME280;41875;55.806;38.082;2022-12-29T03:13:25;99130.84;;;1.96;56.94
55990;BME280;41875;55.806;38.082;2022-12-29T03:16:21;99136.00;;;2.09;56.82
55990;BME280;41875;55.806;38.082;2022-12-29T03:18:57;99140.31;;;2.21;56.43
55990;BME280;41875;55.806;38.082;2022-12-29T03:21:32;99147.03;;;2.12;56.45
55990;BME280;41875;55.806;38.082;2022-12-29T03:24:25;99153.38;;;2.21;56.36
55990;BME280;41875;55.806;38.082;2022-12-29T03:26:58;99147.25;;;2.09;56.72
55990;BME280;41875;55.806;38.082;2022-12-29T03:29:36;99155.03;;;1.87;57.31
55990;BME280;41875;55.806;38.082;2022-12-29T03:32:08;99159.16;;;1.41;58.46
55990;BME280;41875;55.806;38.082;2022-12-29T03:34:39;99139.72;;;1.08;59.61
55990;BME280;41875;55.806;38.082;2022-12-29T03:37:11;99151.78;;;0.58;60.92
55990;BME280;41875;55.806;38.082;2022-12-29T03:39:41;99174.63;;;0.55;61.99
55990;BME280;41875;55.806;38.082;2022-12-29T03:42:14;99173.22;;;1.01;60.53
55990;BME280;41875;55.806;38.082;2022-12-29T03:44:45;99168.94;;;1.00;60.28
55990;BME280;41875;55.806;38.082;2022-12-29T03:47:15;99166.53;;;1.10;60.34
55990;BME280;41875;55.806;38.082;2022-12-29T03:49:47;99177.94;;;1.46;59.21
55990;BME280;41875;55.806;38.082;2022-12-29T03:52:19;99168.19;;;1.24;59.99
55990;BME280;41875;55.806;38.082;2022-12-29T03:54:50;99173.13;;;1.02;61.04
55990;BME280;41875;55.806;38.082;2022-12-29T03:57:18;99190.56;;;1.02;61.35
55990;BME280;41875;55.806;38.082;2022-12-29T03:59:54;99187.72;;;1.05;60.42
55990;BME280;41875;55.806;38.082;2022-12-29T04:02:23;99188.25;;;1.10;60.46
55990;BME280;41875;55.806;38.082;2022-12-29T04:04:54;99174.34;;;1.23;60.03
55990;BME280;41875;55.806;38.082;2022-12-29T04:07:23;99190.47;;;1.41;59.80
55990;BME280;41875;55.806;38.082;2022-12-29T04:09:53;99188.88;;;1.01;60.44
55990;BME280;41875;55.806;38.082;2022-12-29T04:12:24;99187.00;;;1.03;60.91
55990;BME280;41875;55.806;38.082;2022-12-29T04:14:52;99193.59;;;0.96;60.57
55990;BME280;41875;55.806;38.082;2022-12-29T04:17:21;99186.72;;;0.82;60.83
55990;BME280;41875;55.806;38.082;2022-12-29T04:19:53;99196.09;;;0.84;60.80
55990;BME280;41875;55.806;38.082;2022-12-29T04:22:43;99202.19;;;1.48;59.22
55990;BME280;41875;55.806;38.082;2022-12-29T04:25:18;99200.78;;;1.05;60.04
55990;BME280;41875;55.806;38.082;2022-12-29T04:27:47;99198.97;;;1.31;59.67
55990;BME280;41875;55.806;38.082;2022-12-29T04:30:34;99194.84;;;1.53;59.13
55990;BME280;41875;55.806;38.082;2022-12-29T04:33:08;99210.47;;;1.66;58.50
55990;BME280;41875;55.806;38.082;2022-12-29T04:35:41;99211.88;;;1.59;59.17
55990;BME280;41875;55.806;38.082;2022-12-29T04:38:12;99197.84;;;1.23;59.11
55990;BME280;41875;55.806;38.082;2022-12-29T04:40:42;99201.53;;;0.81;60.29
55990;BME280;41875;55.806;38.082;2022-12-29T04:43:13;99194.94;;;0.88;60.37
55990;BME280;41875;55.806;38.082;2022-12-29T04:46:03;99205.25;;;0.64;61.26
55990;BME280;41875;55.806;38.082;2022-12-29T04:48:56;99187.66;;;0.81;61.08
55990;BME280;41875;55.806;38.082;2022-12-29T04:51:29;99211.53;;;1.00;60.19
55990;BME280;41875;55.806;38.082;2022-12-29T04:53:58;99211.22;;;0.79;61.08
55990;BME280;41875;55.806;38.082;2022-12-29T04:56:29;99211.94;;;0.94;60.81
55990;BME280;41875;55.806;38.082;2022-12-29T04:58:57;99214.22;;;0.99;60.82
55990;BME280;41875;55.806;38.082;2022-12-29T05:01:26;99204.19;;;1.18;59.45
55990;BME280;41875;55.806;38.082;2022-12-29T05:03:54;99218.19;;;1.17;60.12
55990;BME280;41875;55.806;38.082;2022-12-29T05:06:23;99208.25;;;1.35;59.17
55990;BME280;41875;55.806;38.082;2022-12-29T05:08:53;99217.78;;;1.24;59.69
55990;BME280;41875;55.806;38.082;2022-12-29T05:11:21;99231.78;;;0.84;60.69
55990;BME280;41875;55.806;38.082;2022-12-29T05:13:52;99227.38;;;0.84;60.48
55990;BME280;41875;55.806;38.082;2022-12-29T05:16:21;99239.19;;;1.16;60.15
55990;BME280;41875;55.806;38.082;2022-12-29T05:18:50;99234.56;;;0.81;60.52
55990;BME280;41875;55.806;38.082;2022-12-29T05:21:19;99226.88;;;1.05;60.01
55990;BME280;41875;55.806;38.082;2022-12-29T05:23:48;99218.94;;;0.68;60.36
55990;BME280;41875;55.806;38.082;2022-12-29T05:26:18;99226.34;;;0.87;60.22
55990;BME280;41875;55.806;38.082;2022-12-29T05:29:10;99226.41;;;1.24;59.91
55990;BME280;41875;55.806;38.082;2022-12-29T05:31:39;99225.38;;;1.77;58.45
55990;BME280;41875;55.806;38.082;2022-12-29T05:34:10;99224.47;;;1.15;59.41
55990;BME280;41875;55.806;38.082;2022-12-29T05:36:40;99229.38;;;0.68;60.85
55990;BME280;41875;55.806;38.082;2022-12-29T05:39:10;99241.28;;;0.32;61.38
55990;BME280;41875;55.806;38.082;2022-12-29T05:41:39;99246.50;;;0.32;62.39
55990;BME280;41875;55.806;38.082;2022-12-29T05:44:27;99251.66;;;0.19;62.55
55990;BME280;41875;55.806;38.082;2022-12-29T05:47:11;99249.97;;;0.45;61.97
55990;BME280;41875;55.806;38.082;2022-12-29T05:50:15;99242.47;;;0.13;62.38
55990;BME280;41875;55.806;38.082;2022-12-29T05:53:07;99248.88;;;0.88;60.14
55990;BME280;41875;55.806;38.082;2022-12-29T05:55:37;99262.09;;;0.72;60.51
55990;BME280;41875;55.806;38.082;2022-12-29T05:58:16;99263.03;;;0.58;60.92
55990;BME280;41875;55.806;38.082;2022-12-29T06:00:46;99266.78;;;-0.28;63.85
55990;BME280;41875;55.806;38.082;2022-12-29T06:03:15;99258.81;;;-0.12;63.56
55990;BME280;41875;55.806;38.082;2022-12-29T06:05:44;99268.91;;;0.34;62.86
55990;BME280;41875;55.806;38.082;2022-12-29T06:08:15;99268.91;;;0.74;61.46
55990;BME280;41875;55.806;38.082;2022-12-29T06:10:43;99270.47;;;1.03;60.34
55990;BME280;41875;55.806;38.082;2022-12-29T06:13:12;99280.38;;;0.32;62.39
55990;BME280;41875;55.806;38.082;2022-12-29T06:15:45;99274.81;;;0.64;61.46
55990;BME280;41875;55.806;38.082;2022-12-29T06:18:13;99283.44;;;1.04;60.42
55990;BME280;41875;55.806;38.082;2022-12-29T06:20:46;99264.44;;;1.02;59.62
55990;BME280;41875;55.806;38.082;2022-12-29T06:23:17;99278.09;;;1.45;59.26
55990;BME280;41875;55.806;38.082;2022-12-29T06:26:04;99241.25;;;0.85;59.77
55990;BME280;41875;55.806;38.082;2022-12-29T06:28:33;99282.28;;;1.34;59.45
55990;BME280;41875;55.806;38.082;2022-12-29T06:31:06;99286.03;;;1.30;59.39
55990;BME280;41875;55.806;38.082;2022-12-29T06:33:37;99284.97;;;1.33;59.42
55990;BME280;41875;55.806;38.082;2022-12-29T06:36:06;99269.59;;;1.54;58.50
55990;BME280;41875;55.806;38.082;2022-12-29T06:38:41;99279.97;;;1.30;59.24
55990;BME280;41875;55.806;38.082;2022-12-29T06:41:10;99264.31;;;1.43;58.82
55990;BME280;41875;55.806;38.082;2022-12-29T06:44:14;99290.50;;;1.41;58.73
55990;BME280;41875;55.806;38.082;2022-12-29T06:47:01;99287.78;;;1.30;59.24
55990;BME280;41875;55.806;38.082;2022-12-29T06:52:29;99301.03;;;1.52;58.70
55990;BME280;41875;55.806;38.082;2022-12-29T06:55:03;99289.78;;;1.26;59.07
55990;BME280;41875;55.806;38.082;2022-12-29T06:57:31;99279.53;;;1.49;58.77
55990;BME280;41875;55.806;38.082;2022-12-29T07:00:00;99287.19;;;1.39;58.82
55990;BME280;41875;55.806;38.082;2022-12-29T07:02:31;99286.84;;;1.31;59.27
55990;BME280;41875;55.806;38.082;2022-12-29T07:05:01;99288.22;;;1.24;59.90
55990;BME280;41875;55.806;38.082;2022-12-29T07:07:46;99285.19;;;1.17;59.61
55990;BME280;41875;55.806;38.082;2022-12-29T07:10:16;99287.56;;;1.59;58.91
55990;BME280;41875;55.806;38.082;2022-12-29T07:12:45;99285.84;;;1.71;58.53
55990;BME280;41875;55.806;38.082;2022-12-29T07:15:20;99293.47;;;1.87;58.35
55990;BME280;41875;55.806;38.082;2022-12-29T07:17:59;99284.72;;;1.62;58.64
55990;BME280;41875;55.806;38.082;2022-12-29T07:20:28;99283.06;;;1.61;58.15
55990;BME280;41875;55.806;38.082;2022-12-29T07:23:02;99290.50;;;1.28;59.13
55990;BME280;41875;55.806;38.082;2022-12-29T07:25:31;99229.44;;;0.53;60.30
55990;BME280;41875;55.806;38.082;2022-12-29T07:28:09;99297.13;;;0.55;61.56
55990;BME280;41875;55.806;38.082;2022-12-29T07:30:38;99271.44;;;0.49;61.58
55990;BME280;41875;55.806;38.082;2022-12-29T07:33:11;99279.88;;;0.93;59.72
55990;BME280;41875;55.806;38.082;2022-12-29T07:35:41;99246.66;;;0.69;59.88
55990;BME280;41875;55.806;38.082;2022-12-29T07:38:10;99303.25;;;0.54;61.40
55990;BME280;41875;55.806;38.082;2022-12-29T07:40:42;99286.09;;;0.77;60.78
55990;BME280;41875;55.806;38.082;2022-12-29T07:43:11;99304.59;;;1.00;59.98
55990;BME280;41875;55.806;38.082;2022-12-29T07:45:48;99305.31;;;1.54;58.88
55990;BME280;41875;55.806;38.082;2022-12-29T07:48:18;99287.81;;;1.17;59.29
55990;BME280;41875;55.806;38.082;2022-12-29T07:51:13;99309.91;;;0.98;59.93
55990;BME280;41875;55.806;38.082;2022-12-29T07:53:42;99306.66;;;1.59;59.07
55990;BME280;41875;55.806;38.082;2022-12-29T07:56:10;99295.59;;;0.78;60.08
55990;BME280;41875;55.806;38.082;2022-12-29T07:58:39;99312.13;;;1.04;60.46
55990;BME280;41875;55.806;38.082;2022-12-29T08:01:08;99296.81;;;0.59;60.59
55990;BME280;41875;55.806;38.082;2022-12-29T08:03:47;99309.91;;;0.98;59.97
55990;BME280;41875;55.806;38.082;2022-12-29T08:06:23;99319.72;;;1.08;59.30
55990;BME280;41875;55.806;38.082;2022-12-29T08:08:54;99309.38;;;0.93;59.44
55990;BME280;41875;55.806;38.082;2022-12-29T08:11:23;99309.81;;;1.51;59.66
55990;BME280;41875;55.806;38.082;2022-12-29T08:13:52;99319.72;;;1.46;59.45
55990;BME280;41875;55.806;38.082;2022-12-29T08:16:21;99316.59;;;1.54;58.86
55990;BME280;41875;55.806;38.082;2022-12-29T08:18:51;99314.88;;;0.35;60.97
55990;BME280;41875;55.806;38.082;2022-12-29T08:21:20;99325.69;;;0.97;60.39
55990;BME280;41875;55.806;38.082;2022-12-29T08:23:48;99288.13;;;1.12;59.38
55990;BME280;41875;55.806;38.082;2022-12-29T08:26:19;99320.50;;;1.35;58.89
55990;BME280;41875;55.806;38.082;2022-12-29T08:28:48;99315.31;;;1.60;58.86
55990;BME280;41875;55.806;38.082;2022-12-29T08:31:17;99328.63;;;1.18;59.25
55990;BME280;41875;55.806;38.082;2022-12-29T08:33:45;99312.63;;;1.10;59.20
55990;BME280;41875;55.806;38.082;2022-12-29T08:36:15;99323.16;;;1.60;59.16
55990;BME280;41875;55.806;38.082;2022-12-29T08:38:44;99300.53;;;1.34;58.11
55990;BME280;41875;55.806;38.082;2022-12-29T08:41:12;99291.75;;;1.48;57.12
55990;BME280;41875;55.806;38.082;2022-12-29T08:43:45;99295.72;;;1.54;56.95
55990;BME280;41875;55.806;38.082;2022-12-29T08:46:17;99310.97;;;1.47;57.60
55990;BME280;41875;55.806;38.082;2022-12-29T08:48:47;99295.50;;;0.39;60.60
55990;BME280;41875;55.806;38.082;2022-12-29T08:51:20;99322.50;;;0.66;59.59
55990;BME280;41875;55.806;38.082;2022-12-29T08:53:53;99318.50;;;0.60;60.01
55990;BME280;41875;55.806;38.082;2022-12-29T08:56:25;99311.59;;;1.38;58.49
55990;BME280;41875;55.806;38.082;2022-12-29T08:58:56;99283.94;;;1.10;57.99
55990;BME280;41875;55.806;38.082;2022-12-29T09:01:31;99325.19;;;1.30;57.78
55990;BME280;41875;55.806;38.082;2022-12-29T09:04:03;99327.25;;;1.38;57.63
55990;BME280;41875;55.806;38.082;2022-12-29T09:06:45;99323.81;;;1.50;57.24
55990;BME280;41875;55.806;38.082;2022-12-29T09:09:15;99322.75;;;1.53;56.85
55990;BME280;41875;55.806;38.082;2022-12-29T09:11:44;99329.25;;;1.34;57.68
55990;BME280;41875;55.806;38.082;2022-12-29T09:14:14;99336.00;;;1.24;58.29
55990;BME280;41875;55.806;38.082;2022-12-29T09:16:44;99314.31;;;1.24;58.18
55990;BME280;41875;55.806;38.082;2022-12-29T09:19:33;99260.03;;;1.29;57.42
55990;BME280;41875;55.806;38.082;2022-12-29T09:22:16;99285.47;;;2.01;56.14
55990;BME280;41875;55.806;38.082;2022-12-29T09:24:46;99313.66;;;2.09;55.58
55990;BME280;41875;55.806;38.082;2022-12-29T09:27:22;99303.00;;;1.62;56.85
55990;BME280;41875;55.806;38.082;2022-12-29T09:29:50;99325.09;;;1.82;57.03
55990;BME280;41875;55.806;38.082;2022-12-29T09:32:19;99339.66;;;1.73;57.00
55990;BME280;41875;55.806;38.082;2022-12-29T09:34:50;99323.78;;;2.13;55.20
55990;BME280;41875;55.806;38.082;2022-12-29T09:37:19;99325.53;;;2.50;54.79
55990;BME280;41875;55.806;38.082;2022-12-29T09:39:57;99330.50;;;1.55;57.37
55990;BME280;41875;55.806;38.082;2022-12-29T09:42:29;99318.66;;;1.75;56.43
55990;BME280;41875;55.806;38.082;2022-12-29T09:45:10;99324.22;;;1.70;57.05
55990;BME280;41875;55.806;38.082;2022-12-29T09:47:42;99325.75;;;1.86;56.31
55990;BME280;41875;55.806;38.082;2022-12-29T09:50:19;99319.72;;;1.59;57.03
55990;BME280;41875;55.806;38.082;2022-12-29T09:53:01;99289.50;;;1.81;55.83
55990;BME280;41875;55.806;38.082;2022-12-29T09:55:37;99296.81;;;2.13;55.10
55990;BME280;41875;55.806;38.082;2022-12-29T09:58:13;99315.97;;;2.01;55.39
55990;BME280;41875;55.806;38.082;2022-12-29T10:00:49;99326.72;;;2.57;54.29
55990;BME280;41875;55.806;38.082;2022-12-29T10:03:35;99293.16;;;2.16;54.40
55990;BME280;41875;55.806;38.082;2022-12-29T10:06:12;99291.41;;;1.66;54.71
55990;BME280;41875;55.806;38.082;2022-12-29T10:08:48;99304.72;;;1.37;56.13
55990;BME280;41875;55.806;38.082;2022-12-29T10:11:33;99342.25;;;1.86;55.20
55990;BME280;41875;55.806;38.082;2022-12-29T10:14:18;99336.88;;;2.01;55.19
55990;BME280;41875;55.806;38.082;2022-12-29T10:17:01;99330.28;;;1.32;56.46
55990;BME280;41875;55.806;38.082;2022-12-29T10:19:54;99273.78;;;1.57;55.51
55990;BME280;41875;55.806;38.082;2022-12-29T10:22:37;99325.03;;;1.71;56.08
55990;BME280;41875;55.806;38.082;2022-12-29T10:25:16;99342.47;;;2.20;55.10
55990;BME280;41875;55.806;38.082;2022-12-29T10:27:48;99337.09;;;1.97;54.58
55990;BME280;41875;55.806;38.082;2022-12-29T10:30:26;99333.84;;;2.07;54.72
55990;BME280;41875;55.806;38.082;2022-12-29T10:33:08;99341.97;;;1.78;55.30
55990;BME280;41875;55.806;38.082;2022-12-29T10:35:42;99327.63;;;1.96;54.66
55990;BME280;41875;55.806;38.082;2022-12-29T10:38:17;99337.69;;;2.14;54.06
55990;BME280;41875;55.806;38.082;2022-12-29T10:40:57;99334.63;;;1.83;55.17
55990;BME280;41875;55.806;38.082;2022-12-29T10:43:28;99327.88;;;1.42;55.75
55990;BME280;41875;55.806;38.082;2022-12-29T10:46:04;99338.72;;;1.10;56.46
55990;BME280;41875;55.806;38.082;2022-12-29T10:48:36;99361.53;;;0.80;57.33
55990;BME280;41875;55.806;38.082;2022-12-29T10:51:08;99356.91;;;0.71;57.34
55990;BME280;41875;55.806;38.082;2022-12-29T10:53:42;99342.44;;;-0.17;60.12
55990;BME280;41875;55.806;38.082;2022-12-29T10:56:25;99355.47;;;0.25;59.36
55990;BME280;41875;55.806;38.082;2022-12-29T10:58:59;99336.13;;;0.29;59.06
55990;BME280;41875;55.806;38.082;2022-12-29T11:01:37;99352.22;;;0.76;57.88
55990;BME280;41875;55.806;38.082;2022-12-29T11:04:25;99298.00;;;0.41;57.64
55990;BME280;41875;55.806;38.082;2022-12-29T11:06:56;99345.03;;;0.39;58.48
55990;BME280;41875;55.806;38.082;2022-12-29T11:09:28;99333.56;;;0.42;58.60
55990;BME280;41875;55.806;38.082;2022-12-29T11:12:22;99355.00;;;0.33;58.82
55990;BME280;41875;55.806;38.082;2022-12-29T11:15:12;99328.25;;;0.16;58.94
55990;BME280;41875;55.806;38.082;2022-12-29T11:17:45;99352.44;;;0.45;59.25
55990;BME280;41875;55.806;38.082;2022-12-29T11:20:27;99268.09;;;0.06;58.56
55990;BME280;41875;55.806;38.082;2022-12-29T11:23:21;99352.94;;;0.38;58.80
55990;BME280;41875;55.806;38.082;2022-12-29T11:26:16;99350.25;;;0.80;58.50
55990;BME280;41875;55.806;38.082;2022-12-29T11:29:16;99349.50;;;0.65;59.02
55990;BME280;41875;55.806;38.082;2022-12-29T11:31:50;99355.28;;;0.55;58.88
55990;BME280;41875;55.806;38.082;2022-12-29T11:34:21;99349.75;;;0.47;59.12
55990;BME280;41875;55.806;38.082;2022-12-29T11:36:52;99346.00;;;0.51;59.56
55990;BME280;41875;55.806;38.082;2022-12-29T11:39:29;99338.50;;;0.87;58.70
55990;BME280;41875;55.806;38.082;2022-12-29T11:42:01;99337.84;;;0.43;59.31
55990;BME280;41875;55.806;38.082;2022-12-29T11:44:36;99340.50;;;0.56;59.58
55990;BME280;41875;55.806;38.082;2022-12-29T11:47:08;99329.25;;;0.68;58.64
55990;BME280;41875;55.806;38.082;2022-12-29T11:49:41;99343.66;;;0.47;59.46
55990;BME280;41875;55.806;38.082;2022-12-29T11:52:09;99350.41;;;0.36;59.52
55990;BME280;41875;55.806;38.082;2022-12-29T11:54:38;99354.16;;;0.32;60.49
55990;BME280;41875;55.806;38.082;2022-12-29T11:57:12;99353.91;;;0.08;60.44
55990;BME280;41875;55.806;38.082;2022-12-29T11:59:51;99344.94;;;-0.30;61.26
55990;BME280;41875;55.806;38.082;2022-12-29T12:02:32;99362.72;;;0.34;60.31
55990;BME280;41875;55.806;38.082;2022-12-29T12:05:22;99356.47;;;0.37;59.57
55990;BME280;41875;55.806;38.082;2022-12-29T12:08:01;99370.31;;;-0.05;60.89
55990;BME280;41875;55.806;38.082;2022-12-29T12:10:33;99380.91;;;0.21;60.17
55990;BME280;41875;55.806;38.082;2022-12-29T12:13:15;99370.66;;;0.18;59.94
55990;BME280;41875;55.806;38.082;2022-12-29T12:15:54;99385.25;;;0.21;60.50
55990;BME280;41875;55.806;38.082;2022-12-29T12:18:32;99376.63;;;0.48;60.00
55990;BME280;41875;55.806;38.082;2022-12-29T12:21:06;99384.81;;;0.14;60.78
55990;BME280;41875;55.806;38.082;2022-12-29T12:23:43;99383.31;;;0.10;61.04
55990;BME280;41875;55.806;38.082;2022-12-29T12:26:20;99387.31;;;0.15;60.95
55990;BME280;41875;55.806;38.082;2022-12-29T12:28:53;99363.25;;;-0.17;60.73
55990;BME280;41875;55.806;38.082;2022-12-29T12:31:36;99395.13;;;0.30;60.29
55990;BME280;41875;55.806;38.082;2022-12-29T12:34:15;99394.03;;;0.05;60.93
55990;BME280;41875;55.806;38.082;2022-12-29T12:37:05;99382.97;;;-0.27;62.32
55990;BME280;41875;55.806;38.082;2022-12-29T12:39:43;99387.16;;;-0.25;62.45
55990;BME280;41875;55.806;38.082;2022-12-29T12:42:25;99386.13;;;0.07;60.78
55990;BME280;41875;55.806;38.082;2022-12-29T12:45:26;99377.06;;;0.54;60.16
55990;BME280;41875;55.806;38.082;2022-12-29T12:48:06;99382.63;;;0.63;59.38
55990;BME280;41875;55.806;38.082;2022-12-29T12:50:53;99320.56;;;-0.14;60.40
55990;BME280;41875;55.806;38.082;2022-12-29T12:53:41;99388.66;;;-0.21;61.41
55990;BME280;41875;55.806;38.082;2022-12-29T12:56:27;99380.38;;;-0.42;62.55
55990;BME280;41875;55.806;38.082;2022-12-29T12:59:06;99355.09;;;-0.11;61.28
55990;BME280;41875;55.806;38.082;2022-12-29T13:01:42;99364.34;;;0.22;60.41
55990;BME280;41875;55.806;38.082;2022-12-29T13:07:28;99376.66;;;0.06;60.52
55990;BME280;41875;55.806;38.082;2022-12-29T13:10:19;99385.56;;;0.16;60.50
55990;BME280;41875;55.806;38.082;2022-12-29T13:12:55;99384.38;;;-0.07;60.59
55990;BME280;41875;55.806;38.082;2022-12-29T13:15:41;99393.41;;;-0.13;61.20
55990;BME280;41875;55.806;38.082;2022-12-29T13:18:22;99390.34;;;-0.34;61.89
55990;BME280;41875;55.806;38.082;2022-12-29T13:20:57;99385.56;;;-0.71;62.46
55990;BME280;41875;55.806;38.082;2022-12-29T13:23:38;99386.78;;;-0.62;63.04
55990;BME280;41875;55.806;38.082;2022-12-29T13:26:14;99389.44;;;-0.64;63.17
55990;BME280;41875;55.806;38.082;2022-12-29T13:28:53;99392.25;;;-0.38;62.06
55990;BME280;41875;55.806;38.082;2022-12-29T13:31:30;99383.97;;;-0.44;61.74
55990;BME280;41875;55.806;38.082;2022-12-29T13:34:09;99372.00;;;-0.18;61.05
55990;BME280;41875;55.806;38.082;2022-12-29T13:36:43;99389.34;;;0.25;60.35
55990;BME280;41875;55.806;38.082;2022-12-29T13:39:20;99391.13;;;0.10;61.24
55990;BME280;41875;55.806;38.082;2022-12-29T13:41:53;99392.06;;;0.09;60.80
55990;BME280;41875;55.806;38.082;2022-12-29T13:44:24;99398.47;;;0.18;60.45
55990;BME280;41875;55.806;38.082;2022-12-29T13:47:01;99397.28;;;0.51;59.78
55990;BME280;41875;55.806;38.082;2022-12-29T13:49:34;99390.22;;;0.53;59.37
55990;BME280;41875;55.806;38.082;2022-12-29T13:52:08;99367.28;;;0.30;59.46